createdAt,value
2022-10-10T00:00:49.102Z,9.90
2022-10-10T00:03:17.226Z,9.90
2022-10-10T00:05:44.146Z,9.89
2022-10-10T00:08:11.118Z,9.83
2022-10-10T00:10:37.979Z,9.84
2022-10-10T00:13:06.237Z,9.82
2022-10-10T00:15:32.946Z,9.80
2022-10-10T00:17:59.529Z,9.76
2022-10-10T00:20:26.053Z,9.74
2022-10-10T00:22:53.002Z,9.72
2022-10-10T00:25:19.971Z,9.67
2022-10-10T00:27:46.534Z,9.63
2022-10-10T00:30:13.501Z,9.58
2022-10-10T00:32:40.042Z,9.55
2022-10-10T00:35:07.054Z,9.47
2022-10-10T00:37:33.575Z,9.48
2022-10-10T00:40:00.128Z,9.43
2022-10-10T00:42:26.679Z,9.40
2022-10-10T00:45:21.433Z,9.36
2022-10-10T00:47:50.622Z,9.32
2022-10-10T00:50:21.262Z,9.30
2022-10-10T00:52:48.147Z,9.29
2022-10-10T00:55:15.415Z,9.27
2022-10-10T00:57:42.447Z,9.22
2022-10-10T01:00:09.805Z,9.25
2022-10-10T01:02:36.891Z,9.25
2022-10-10T01:05:04.234Z,9.26
2022-10-10T01:07:32.042Z,9.29
2022-10-10T01:10:07.856Z,9.29
2022-10-10T01:12:43.171Z,9.25
2022-10-10T01:15:32.424Z,9.21
2022-10-10T01:18:10.632Z,9.22
2022-10-10T01:20:40.110Z,9.22
2022-10-10T01:23:28.355Z,9.18
2022-10-10T01:26:12.811Z,9.16
2022-10-10T01:28:50.494Z,9.13
2022-10-10T01:31:22.721Z,9.12
2022-10-10T01:34:09.598Z,9.12
2022-10-10T01:36:51.823Z,9.09
2022-10-10T01:39:34.785Z,9.07
2022-10-10T01:42:33.390Z,9.03
2022-10-10T01:44:59.935Z,8.96
2022-10-10T01:47:26.458Z,8.94
2022-10-10T01:49:58.311Z,8.88
2022-10-10T01:52:43.563Z,8.80
2022-10-10T01:55:43.623Z,8.78
2022-10-10T01:58:39.943Z,8.79
2022-10-10T02:01:18.417Z,8.76
2022-10-10T02:03:51.305Z,8.70
2022-10-10T02:06:25.715Z,8.69
2022-10-10T02:08:58.624Z,8.69
2022-10-10T02:11:27.324Z,8.67
2022-10-10T02:14:03.149Z,8.67
2022-10-10T02:16:38.035Z,8.67
2022-10-10T02:19:09.911Z,8.69
2022-10-10T02:21:38.671Z,8.62
2022-10-10T02:24:08.037Z,8.63
2022-10-10T02:26:36.612Z,8.59
2022-10-10T02:29:16.731Z,8.60
2022-10-10T02:31:54.806Z,8.59
2022-10-10T02:34:32.329Z,8.56
2022-10-10T02:37:03.063Z,8.52
2022-10-10T02:39:33.987Z,8.50
2022-10-10T02:42:00.555Z,8.47
2022-10-10T02:44:27.755Z,8.47
2022-10-10T02:46:54.432Z,8.48
2022-10-10T02:49:27.571Z,8.44
2022-10-10T02:51:54.308Z,8.44
2022-10-10T02:54:20.827Z,8.42
2022-10-10T02:56:47.398Z,8.43
2022-10-10T02:59:13.912Z,8.43
2022-10-10T03:01:40.763Z,8.41
2022-10-10T03:04:07.270Z,8.39
2022-10-10T03:06:33.835Z,8.36
2022-10-10T03:09:00.357Z,8.32
2022-10-10T03:11:26.921Z,8.35
2022-10-10T03:13:53.407Z,8.32
2022-10-10T03:16:19.898Z,8.25
2022-10-10T03:18:46.685Z,8.30
2022-10-10T03:21:13.211Z,8.26
2022-10-10T03:23:39.706Z,8.26
2022-10-10T03:26:06.533Z,8.22
2022-10-10T03:28:33.262Z,8.25
2022-10-10T03:30:59.949Z,8.24
2022-10-10T03:33:26.450Z,8.22
2022-10-10T03:35:52.952Z,8.24
2022-10-10T03:38:19.619Z,8.22
2022-10-10T03:40:46.426Z,8.19
2022-10-10T03:43:14.044Z,8.18
2022-10-10T03:45:45.851Z,8.18
2022-10-10T03:48:12.414Z,8.22
2022-10-10T03:50:39.047Z,8.17
2022-10-10T03:53:06.024Z,8.15
2022-10-10T03:55:32.694Z,8.16
2022-10-10T03:57:59.234Z,8.12
2022-10-10T04:00:25.807Z,8.10
2022-10-10T04:02:53.725Z,8.08
2022-10-10T04:05:20.559Z,8.10
2022-10-10T04:07:47.066Z,8.12
2022-10-10T04:10:13.574Z,8.09
2022-10-10T04:12:40.079Z,8.13
2022-10-10T04:15:06.979Z,8.12
2022-10-10T04:17:33.489Z,8.12
2022-10-10T04:19:59.967Z,8.11
2022-10-10T04:22:26.508Z,8.09
2022-10-10T04:24:53.011Z,8.06
2022-10-10T04:27:19.534Z,8.03
2022-10-10T04:29:46.087Z,8.00
2022-10-10T04:32:12.585Z,8.02
2022-10-10T04:34:39.081Z,8.02
2022-10-10T04:37:05.583Z,8.01
2022-10-10T04:39:32.082Z,8.00
2022-10-10T04:41:58.591Z,8.02
2022-10-10T04:44:26.343Z,8.02
2022-10-10T04:46:52.856Z,8.01
2022-10-10T04:49:19.420Z,7.99
2022-10-10T04:51:46.093Z,7.98
2022-10-10T04:54:13.286Z,7.99
2022-10-10T04:56:42.477Z,8.00
2022-10-10T04:59:10.104Z,7.97
2022-10-10T05:01:36.790Z,7.92
2022-10-10T05:04:03.871Z,7.90
2022-10-10T05:06:30.539Z,7.94
2022-10-10T05:08:57.089Z,7.95
2022-10-10T05:11:23.633Z,7.99
2022-10-10T05:13:50.738Z,7.99
2022-10-10T05:16:17.319Z,8.05
2022-10-10T05:18:44.069Z,8.05
2022-10-10T05:21:11.956Z,8.10
2022-10-10T05:23:38.700Z,8.14
2022-10-10T05:26:05.645Z,8.14
2022-10-10T05:28:35.264Z,8.19
2022-10-10T05:31:03.395Z,8.26
2022-10-10T05:33:29.969Z,8.28
2022-10-10T05:36:10.733Z,8.31
2022-10-10T05:38:38.591Z,8.39
2022-10-10T05:41:05.800Z,8.45
2022-10-10T05:43:32.377Z,8.49
2022-10-10T05:45:58.865Z,8.55
2022-10-10T05:48:25.346Z,8.59
2022-10-10T05:50:55.437Z,8.64
2022-10-10T05:53:23.645Z,8.69
2022-10-10T05:55:50.440Z,8.74
2022-10-10T05:58:16.995Z,8.83
2022-10-10T06:00:45.629Z,8.90
2022-10-10T06:03:15.568Z,8.98
2022-10-10T06:05:46.136Z,9.08
2022-10-10T06:08:12.924Z,9.14
2022-10-10T06:10:45.169Z,9.20
2022-10-10T06:13:13.855Z,9.25
2022-10-10T06:15:41.196Z,9.35
2022-10-10T06:18:08.390Z,9.43
2022-10-10T06:20:39.527Z,9.52
2022-10-10T06:23:07.605Z,9.59
2022-10-10T06:25:40.504Z,9.66
2022-10-10T06:28:08.157Z,9.76
2022-10-10T06:30:35.208Z,9.88
2022-10-10T06:33:02.039Z,10.02
2022-10-10T06:35:28.671Z,10.16
2022-10-10T06:37:55.183Z,10.23
2022-10-10T06:40:21.699Z,10.29
2022-10-10T06:42:48.327Z,10.38
2022-10-10T06:45:15.024Z,10.51
2022-10-10T06:47:42.074Z,10.59
2022-10-10T06:50:08.910Z,10.69
2022-10-10T06:52:35.560Z,10.78
2022-10-10T06:55:02.062Z,10.92
2022-10-10T06:57:29.099Z,11.03
2022-10-10T06:59:55.597Z,11.10
2022-10-10T07:02:23.254Z,11.15
2022-10-10T07:04:49.980Z,11.21
2022-10-10T07:07:16.757Z,11.27
2022-10-10T07:09:43.266Z,11.37
2022-10-10T07:12:12.361Z,11.47
2022-10-10T07:14:38.836Z,11.55
2022-10-10T07:17:05.395Z,11.64
2022-10-10T07:19:31.971Z,11.74
2022-10-10T07:21:58.474Z,11.87
2022-10-10T07:24:24.967Z,11.92
2022-10-10T07:27:02.413Z,12.06
2022-10-10T07:29:31.633Z,12.13
2022-10-10T07:31:58.167Z,12.22
2022-10-10T07:34:24.950Z,12.31
2022-10-10T07:36:51.515Z,12.37
2022-10-10T07:39:22.353Z,12.43
2022-10-10T07:41:50.174Z,12.51
2022-10-10T07:44:17.004Z,12.62
2022-10-10T07:46:43.819Z,12.71
2022-10-10T07:49:10.551Z,12.81
2022-10-10T07:51:38.010Z,12.91
2022-10-10T07:54:05.218Z,12.98
2022-10-10T07:56:31.941Z,13.12
2022-10-10T07:58:59.144Z,13.20
2022-10-10T08:01:25.690Z,13.33
2022-10-10T08:03:52.247Z,13.43
2022-10-10T08:06:18.794Z,13.50
2022-10-10T08:08:51.207Z,13.64
2022-10-10T08:11:20.210Z,13.76
2022-10-10T08:13:46.705Z,13.87
2022-10-10T08:16:13.390Z,14.01
2022-10-10T08:18:40.026Z,14.13
2022-10-10T08:21:09.021Z,14.25
2022-10-10T08:23:36.212Z,14.42
2022-10-10T08:26:07.160Z,14.56
2022-10-10T08:28:34.439Z,14.68
2022-10-10T08:31:08.372Z,14.83
2022-10-10T08:33:35.745Z,14.95
2022-10-10T08:36:08.121Z,15.08
2022-10-10T08:38:35.839Z,15.20
2022-10-10T08:41:18.411Z,15.33
2022-10-10T08:43:51.357Z,15.42
2022-10-10T08:46:23.691Z,15.58
2022-10-10T08:48:52.495Z,15.69
2022-10-10T08:51:28.781Z,15.84
2022-10-10T08:53:58.991Z,16.01
2022-10-10T08:56:32.961Z,16.16
2022-10-10T08:59:14.618Z,16.28
2022-10-10T09:02:18.348Z,16.43
2022-10-10T09:04:30.449Z,16.56
2022-10-10T09:07:29.212Z,16.74
2022-10-10T09:10:18.768Z,16.91
2022-10-10T09:13:21.065Z,17.01
2022-10-10T09:16:01.780Z,17.11
2022-10-10T09:18:37.518Z,17.30
2022-10-10T09:21:08.889Z,17.51
2022-10-10T09:23:43.402Z,17.66
2022-10-10T09:26:13.831Z,17.79
2022-10-10T09:28:55.395Z,17.74
2022-10-10T09:31:31.273Z,17.91
2022-10-10T09:34:04.963Z,18.17
2022-10-10T09:36:35.666Z,18.36
2022-10-10T09:39:14.083Z,18.60
2022-10-10T09:41:51.358Z,18.77
2022-10-10T09:44:21.376Z,18.99
2022-10-10T09:46:48.214Z,19.15
2022-10-10T09:49:16.915Z,19.29
2022-10-10T09:51:44.911Z,19.45
2022-10-10T09:54:14.165Z,19.77
2022-10-10T09:56:45.036Z,20.07
2022-10-10T09:59:40.839Z,20.37
2022-10-10T10:02:27.987Z,20.53
2022-10-10T10:04:55.141Z,20.65
2022-10-10T10:07:29.027Z,20.89
2022-10-10T10:10:01.089Z,21.10
2022-10-10T10:12:30.466Z,21.45
2022-10-10T10:15:05.341Z,21.71
2022-10-10T10:17:32.483Z,21.98
2022-10-10T10:19:59.014Z,22.54
2022-10-10T10:22:38.270Z,23.10
2022-10-10T10:25:31.979Z,23.54
2022-10-10T10:28:10.579Z,23.90
2022-10-10T10:30:39.246Z,24.24
2022-10-10T10:33:24.682Z,24.85
2022-10-10T10:36:28.975Z,25.62
2022-10-10T10:39:06.131Z,26.03
2022-10-10T10:41:38.729Z,26.26
2022-10-10T10:44:20.408Z,26.56
2022-10-10T10:47:01.144Z,26.79
2022-10-10T10:49:37.092Z,27.51
2022-10-10T10:52:46.880Z,27.95
2022-10-10T10:55:19.400Z,28.51
2022-10-10T10:58:37.285Z,28.94
2022-10-10T11:01:28.797Z,29.47
2022-10-10T11:05:22.784Z,29.99
2022-10-10T11:07:19.999Z,30.31
2022-10-10T11:09:55.561Z,30.74
2022-10-10T11:12:50.126Z,31.19
2022-10-10T11:15:30.762Z,31.28
2022-10-10T11:18:15.839Z,31.62
2022-10-10T11:20:52.396Z,31.86
2022-10-10T11:23:42.244Z,32.14
2022-10-10T11:26:30.068Z,32.21
2022-10-10T11:29:09.530Z,32.32
2022-10-10T11:31:52.839Z,32.26
2022-10-10T11:34:25.072Z,32.22
2022-10-10T11:36:56.582Z,32.38
2022-10-10T11:39:56.341Z,32.60
2022-10-10T11:42:27.121Z,32.79
2022-10-10T11:45:00.043Z,32.89
2022-10-10T11:47:54.391Z,32.85
2022-10-10T11:50:28.934Z,32.80
2022-10-10T11:53:25.458Z,32.71
2022-10-10T11:55:57.281Z,31.96
2022-10-10T11:58:33.473Z,31.88
2022-10-10T12:01:06.623Z,31.82
2022-10-10T12:03:33.045Z,32.13
2022-10-10T12:06:06.031Z,31.99
2022-10-10T12:08:46.026Z,31.88
2022-10-10T12:11:22.603Z,31.33
2022-10-10T12:14:17.251Z,30.66
2022-10-10T12:16:44.313Z,30.35
2022-10-10T12:19:22.206Z,30.35
2022-10-10T12:22:05.421Z,30.90
2022-10-10T12:24:42.320Z,31.61
2022-10-10T12:27:25.559Z,32.25
2022-10-10T12:29:54.850Z,32.24
2022-10-10T12:32:27.566Z,31.54
2022-10-10T12:34:53.989Z,31.49
2022-10-10T12:37:30.756Z,32.21
2022-10-10T12:40:00.879Z,32.33
2022-10-10T12:42:30.659Z,32.44
2022-10-10T12:44:57.317Z,33.05
2022-10-10T12:47:46.315Z,33.01
2022-10-10T12:50:41.622Z,32.16
2022-10-10T12:53:14.182Z,31.44
2022-10-10T12:55:44.689Z,30.71
2022-10-10T12:58:27.178Z,30.15
2022-10-10T13:00:58.072Z,29.98
2022-10-10T13:03:24.511Z,29.42
2022-10-10T13:05:51.602Z,29.41
2022-10-10T13:08:23.895Z,29.24
2022-10-10T13:11:04.340Z,29.18
2022-10-10T13:13:31.829Z,28.88
2022-10-10T13:16:05.493Z,28.58
2022-10-10T13:18:48.312Z,27.68
2022-10-10T13:21:18.183Z,27.33
2022-10-10T13:26:38.762Z,26.27
2022-10-10T13:29:15.608Z,25.78
2022-10-10T13:31:43.367Z,25.39
2022-10-10T13:34:14.459Z,25.21
2022-10-10T13:36:41.246Z,24.98
2022-10-10T13:39:15.360Z,24.83
2022-10-10T13:41:45.699Z,24.68
2022-10-10T13:44:21.033Z,24.50
2022-10-10T13:46:47.594Z,24.35
2022-10-10T13:49:26.330Z,24.15
2022-10-10T13:52:20.654Z,24.06
2022-10-10T13:54:47.762Z,23.82
2022-10-10T13:57:24.338Z,23.59
2022-10-10T14:00:00.701Z,23.51
2022-10-10T14:02:32.505Z,23.46
2022-10-10T14:05:03.844Z,23.16
2022-10-10T14:07:31.130Z,22.99
2022-10-10T14:10:01.673Z,22.88
2022-10-10T14:12:34.019Z,22.84
2022-10-10T14:15:01.603Z,22.58
2022-10-10T14:17:29.325Z,22.42
2022-10-10T14:19:56.425Z,22.31
2022-10-10T14:22:23.542Z,22.10
2022-10-10T14:24:50.474Z,21.95
2022-10-10T14:27:16.905Z,21.86
2022-10-10T14:29:43.463Z,21.76
2022-10-10T14:32:11.709Z,21.58
2022-10-10T14:34:38.571Z,21.40
2022-10-10T14:37:05.541Z,21.35
2022-10-10T14:39:34.860Z,21.36
2022-10-10T14:42:02.213Z,21.43
2022-10-10T14:44:28.741Z,21.33
2022-10-10T14:46:55.233Z,21.08
2022-10-10T14:49:21.919Z,21.03
2022-10-10T14:51:48.476Z,20.87
2022-10-10T14:54:15.378Z,20.84
2022-10-10T14:57:09.132Z,20.70
2022-10-10T14:59:47.167Z,20.61
2022-10-10T15:02:20.236Z,20.44
2022-10-10T15:04:46.811Z,20.23
2022-10-10T15:07:14.741Z,20.08
2022-10-10T15:09:57.697Z,20.06
2022-10-10T15:12:30.753Z,19.86
2022-10-10T15:14:57.330Z,19.83
2022-10-10T15:17:25.530Z,19.82
2022-10-10T15:19:52.223Z,19.74
2022-10-10T15:22:19.049Z,19.43
2022-10-10T15:24:45.679Z,19.24
2022-10-10T15:27:12.207Z,19.18
2022-10-10T15:29:39.542Z,18.99
2022-10-10T15:32:06.638Z,18.72
2022-10-10T15:34:33.328Z,18.62
2022-10-10T15:36:59.866Z,18.54
2022-10-10T15:39:26.525Z,18.56
2022-10-10T15:41:53.033Z,18.43
2022-10-10T15:44:19.794Z,18.52
2022-10-10T15:46:46.448Z,18.26
2022-10-10T15:49:14.504Z,18.10
2022-10-10T15:51:47.908Z,17.92
2022-10-10T15:54:14.975Z,17.85
2022-10-10T15:56:42.079Z,17.70
2022-10-10T15:59:09.559Z,17.60
2022-10-10T16:01:36.115Z,17.55
2022-10-10T16:04:04.846Z,17.49
2022-10-10T16:06:31.330Z,17.37
2022-10-10T16:09:16.387Z,17.17
2022-10-10T16:11:44.311Z,17.02
2022-10-10T16:14:11.259Z,16.95
2022-10-10T16:16:37.761Z,16.82
2022-10-10T16:19:04.330Z,16.63
2022-10-10T16:21:33.434Z,16.56
2022-10-10T16:24:00.623Z,16.51
2022-10-10T16:26:33.485Z,16.40
2022-10-10T16:29:01.494Z,16.23
2022-10-10T16:31:28.635Z,16.21
2022-10-10T16:33:57.435Z,16.03
2022-10-10T16:36:30.398Z,16.04
2022-10-10T16:38:57.990Z,15.94
2022-10-10T16:41:46.972Z,15.70
2022-10-10T16:44:14.100Z,15.65
2022-10-10T16:46:41.949Z,15.59
2022-10-10T16:49:11.614Z,15.52
2022-10-10T16:51:38.275Z,15.52
2022-10-10T16:54:05.925Z,15.45
2022-10-10T16:56:33.028Z,15.29
2022-10-10T16:59:00.326Z,15.18
2022-10-10T17:01:27.433Z,15.03
2022-10-10T17:03:54.464Z,14.90
2022-10-10T17:06:23.300Z,14.79
2022-10-10T17:08:52.006Z,14.82
2022-10-10T17:11:20.573Z,14.72
2022-10-10T17:13:48.627Z,14.63
2022-10-10T17:19:07.916Z,14.34
2022-10-10T17:21:34.416Z,14.30
2022-10-10T17:24:00.893Z,14.38
2022-10-10T17:26:28.024Z,14.35
2022-10-10T17:28:56.719Z,14.21
2022-10-10T17:31:23.954Z,14.12
2022-10-10T17:33:53.967Z,14.12
2022-10-10T17:36:23.759Z,14.08
2022-10-10T17:38:50.987Z,14.12
2022-10-10T17:41:19.390Z,14.14
2022-10-10T17:43:46.299Z,14.06
2022-10-10T17:46:40.625Z,13.95
2022-10-10T17:49:09.742Z,13.76
2022-10-10T17:51:37.342Z,13.69
2022-10-10T17:54:05.895Z,13.71
2022-10-10T17:56:33.019Z,13.58
2022-10-10T17:59:01.446Z,13.64
2022-10-10T18:01:30.515Z,13.60
2022-10-10T18:03:57.404Z,13.48
2022-10-10T18:06:24.627Z,13.32
2022-10-10T18:08:52.447Z,13.34
2022-10-10T18:11:30.007Z,13.23
2022-10-10T18:14:00.511Z,13.20
2022-10-10T18:16:30.230Z,13.19
2022-10-10T18:18:58.277Z,13.13
2022-10-10T18:21:24.838Z,13.02
2022-10-10T18:23:52.125Z,12.95
2022-10-10T18:26:23.760Z,12.93
2022-10-10T18:28:52.529Z,12.86
2022-10-10T18:31:21.908Z,12.72
2022-10-10T18:33:49.273Z,12.67
2022-10-10T18:36:22.583Z,12.75
2022-10-10T18:38:49.311Z,12.56
2022-10-10T18:41:18.503Z,12.45
2022-10-10T18:43:47.000Z,12.34
2022-10-10T18:46:16.009Z,12.40
2022-10-10T18:48:42.943Z,12.40
2022-10-10T18:51:16.010Z,12.28
2022-10-10T18:53:45.104Z,12.26
2022-10-10T18:56:14.159Z,12.16
2022-10-10T18:58:41.326Z,12.19
2022-10-10T19:01:12.463Z,12.18
2022-10-10T19:03:40.267Z,12.12
2022-10-10T19:06:10.011Z,12.11
2022-10-10T19:08:36.581Z,11.98
2022-10-10T19:11:05.340Z,11.97
2022-10-10T19:13:33.083Z,11.88
2022-10-10T19:16:07.228Z,11.85
2022-10-10T19:18:35.022Z,11.83
2022-10-10T19:21:04.747Z,11.84
2022-10-10T19:23:32.166Z,11.85
2022-10-10T19:26:06.736Z,11.81
2022-10-10T19:28:33.494Z,11.81
2022-10-10T19:31:12.642Z,11.75
2022-10-10T19:33:40.471Z,11.77
2022-10-10T19:36:12.588Z,11.75
2022-10-10T19:38:41.683Z,11.85
2022-10-10T19:41:12.916Z,11.79
2022-10-10T19:43:40.775Z,11.73
2022-10-10T19:46:09.742Z,11.73
2022-10-10T19:48:37.072Z,11.73
2022-10-10T19:51:12.011Z,11.71
2022-10-10T19:53:39.823Z,11.62
2022-10-10T19:56:28.080Z,11.66
2022-10-10T19:58:57.498Z,11.61
2022-10-10T20:01:29.346Z,11.55
2022-10-10T20:03:57.778Z,11.49
2022-10-10T20:06:24.476Z,11.45
2022-10-10T20:08:50.999Z,11.47
2022-10-10T20:11:21.185Z,11.43
2022-10-10T20:13:51.773Z,11.45
2022-10-10T20:16:18.474Z,11.39
2022-10-10T20:18:45.046Z,11.36
2022-10-10T20:21:18.763Z,11.40
2022-10-10T20:23:46.812Z,11.41
2022-10-10T20:26:16.730Z,11.35
2022-10-10T20:28:44.325Z,11.31
2022-10-10T20:31:25.230Z,11.26
2022-10-10T20:33:54.148Z,11.25
2022-10-10T20:36:21.679Z,11.12
2022-10-10T20:38:53.579Z,11.06
2022-10-10T20:41:21.130Z,11.04
2022-10-10T20:43:47.710Z,11.03
2022-10-10T20:46:15.168Z,11.02
2022-10-10T20:48:42.111Z,11.07
2022-10-10T20:51:11.207Z,11.02
2022-10-10T20:53:39.418Z,11.04
2022-10-10T20:56:07.686Z,11.07
2022-10-10T20:58:36.122Z,11.03
2022-10-10T21:01:17.101Z,11.03
2022-10-10T21:03:45.056Z,11.04
2022-10-10T21:06:14.358Z,11.00
2022-10-10T21:08:42.110Z,10.99
2022-10-10T21:11:12.616Z,11.01
2022-10-10T21:13:41.786Z,10.98
2022-10-10T21:16:11.095Z,10.95
2022-10-10T21:18:38.245Z,10.98
2022-10-10T21:21:06.166Z,10.93
2022-10-10T21:23:36.643Z,10.92
2022-10-10T21:26:08.440Z,10.90
2022-10-10T21:28:35.973Z,10.87
2022-10-10T21:31:02.897Z,10.89
2022-10-10T21:33:29.816Z,10.83
2022-10-10T21:35:57.280Z,10.84
2022-10-10T21:38:24.794Z,10.86
2022-10-10T21:40:52.069Z,10.83
2022-10-10T21:43:19.264Z,10.82
2022-10-10T21:45:45.775Z,10.82
2022-10-10T21:48:12.784Z,10.82
2022-10-10T21:50:39.950Z,10.80
2022-10-10T21:53:07.762Z,10.79
2022-10-10T21:55:38.298Z,10.78
2022-10-10T21:58:05.031Z,10.77
2022-10-10T22:00:31.604Z,10.78
2022-10-10T22:02:58.124Z,10.75
2022-10-10T22:05:24.641Z,10.78
2022-10-10T22:07:51.155Z,10.80
2022-10-10T22:10:19.318Z,10.79
2022-10-10T22:12:46.721Z,10.78
2022-10-10T22:15:13.998Z,10.76
2022-10-10T22:17:40.782Z,10.81
2022-10-10T22:20:08.443Z,10.83
2022-10-10T22:22:39.862Z,10.84
2022-10-10T22:25:11.926Z,10.85
2022-10-10T22:27:39.018Z,10.85
2022-10-10T22:30:07.545Z,10.85
2022-10-10T22:32:34.241Z,10.82
2022-10-10T22:35:00.934Z,10.87
2022-10-10T22:37:27.479Z,10.88
2022-10-10T22:39:54.039Z,10.87
2022-10-10T22:42:20.755Z,10.89
2022-10-10T22:44:47.292Z,10.92
2022-10-10T22:47:13.872Z,10.93
2022-10-10T22:49:40.388Z,10.92
2022-10-10T22:52:08.857Z,10.99
2022-10-10T22:54:36.091Z,10.96
2022-10-10T22:57:02.850Z,10.96
2022-10-10T22:59:29.359Z,11.01
2022-10-10T23:01:55.927Z,11.02
2022-10-10T23:04:22.972Z,11.02
2022-10-10T23:06:50.004Z,11.03
2022-10-10T23:09:17.301Z,11.07
2022-10-10T23:11:43.791Z,11.10
2022-10-10T23:14:10.299Z,11.11
2022-10-10T23:16:40.536Z,11.13
2022-10-10T23:19:07.609Z,11.15
2022-10-10T23:21:34.123Z,11.11
2022-10-10T23:24:00.614Z,11.08
2022-10-10T23:26:27.168Z,11.09
2022-10-10T23:28:53.811Z,11.10
2022-10-10T23:31:20.435Z,11.13
2022-10-10T23:33:46.993Z,11.11
2022-10-10T23:36:15.006Z,11.15
2022-10-10T23:38:42.439Z,11.20
2022-10-10T23:41:10.328Z,11.20
2022-10-10T23:43:37.104Z,11.17
2022-10-10T23:46:04.546Z,11.20
2022-10-10T23:48:31.270Z,11.19
2022-10-10T23:50:57.870Z,11.18
2022-10-10T23:53:24.342Z,11.20
2022-10-10T23:55:50.838Z,11.19
2022-10-10T23:58:17.435Z,11.18
